Terminal Aerodrome Forecast
Issued by NWS Sterling, VA

Current Version | Previous Version | Graphics & Text | Print | Product List | Glossary On
Versions: 1 2 3 4 5 6 7 8 9 10 11 12 13 14 15 16 17 18 19 20 21 22 23
557
FTUS41 KLWX 251500 AAA
TAFDCA
TAF AMD
KDCA 251500Z 2515/2612 18011G19KT P6SM SCT120 BKN250
     FM251900 21014G22KT 5SM -TSRA OVC045CB
     FM252000 27014G34KT 3SM -TSRA OVC045CB
     FM252100 30015G31KT P6SM -TSRA OVC045CB
     FM252200 30015G31KT P6SM BKN045
     FM260000 29017G35KT P6SM SCT250
     FM260600 30014G24KT P6SM FEW040=

USA.gov is the U.S. government's official web portal to all federal, state and local government web resources and services.